San Eduardo, Argentina
Current Conditions -  °F | °C
As of 11:00 AM on Thursday 27 Nov 2014 (Local Time) from SAAR Reporting Station
Clear Clear  
Wind Chill: 79°   Ceiling: Unl
Heat Index: 79°   Visibility: 6mi
Dew Point: 50°   Wind: 7mph
Humidity: 36%   Direction: 20°NNE
Pressure: 30"   Gusts: NA
Location:  33.88°S, 62.12°W
Report Text: SAAR 271400Z 02006KT CAVOK 26/10 Q1016
Loading
Personal Weather Stations






























Interactive Weather Map New forecast layout! Learn more

10-Day Weather Forecast

Advertisements
Track Severe Weather on mobile